Airfield :
LOGIN :

Register | Disclaimer

   EN    FR    IT 

 










Legend :    VFR   Marginal VFR   IFR   Intensive IFR   Very Intensive IFR
Visi :
Ceiling :
>= 8 km
>= 3000ft
5 to 8 km
1000 to 3000 ft
1500m to 5 km
500 to 1000 ft
800 to 1500m
200 to 500 ft
< 800m
< 200 ft
Symbols :   Thunderstorms  Fog  Heavy snow  Heavy precipitations  Wind > 20 kt
SIGMETs :     Misc.  Thunderstorms  Icing  Turbulence  Mountain Waves  Volcanic Ashes






- Airport Elevation : 821 ft
- IATA code : LYS


LFLL - Lyon St Exupéry / Satolas

CURRENT METAR :
  • 180300Z 00000KT 9999 FEW033 03/02 Q1029 NOSIG

EXPIRED METARs :
  • 180230Z VRB02KT 9999 FEW033 03/02 Q1029 NOSIG
  • 180200Z 07002KT CAVOK 03/02 Q1029 NOSIG
  • 180130Z 00000KT CAVOK 04/03 Q1029 NOSIG
  • 180100Z 00000KT CAVOK 04/03 Q1029 NOSIG
  • 180030Z VRB02KT CAVOK 04/03 Q1029 NOSIG

TAF TAF LFLL
Valid from the 18 at 00:00 until the 19 at 06:00 UTC


172300Z 1800/1906 36002KT 9999 BKN030
BECMG 1810/1812 36007KT
BECMG 1813/1815 CAVOK
BECMG 1903/1905 BKN006



MET'MAP, your aeronautical weather chart ! - Copyright ORBIFLY December 2007 - Disclaimer

ORBIFLY MET'MAP TEAM :

Programming & Development : Alexandra Zaïnal
Concept & original design : Baudouin d'Aumeries
Assistance for programming : Marc-Olivier Méhu
Technical & hardware support : Manuel Goepfert

Contact : metmap@orbifly.com




SOURCES & CREDITS :

   NOAA